KLCG

Details ICAO KLCG
Name WAYNE MUNI
Region United States
Timezone America/Chicago (UTC-6.0)
Plans Departing 0
Arriving 0
Stats Elevation 1,431 ft / 436 m (AMSL)
Location 42.241335° -96.982823°
Runways 3
Magnetic Variation 3.281° E
Sunrise 2017-12-12 13:49:07 UTC / 2017-12-12 07:49:07 Local
Sunset 2017-12-12 22:57:19 UTC / 2017-12-12 16:57:19 Local
Advertisement - Login to hide

Runways

ID Width Length Bearing (true) Bearing (mag) Surface Threshold Offset Overrun Length
04 59 ft / 18 m 3,414 ft / 1,041 m 53.90° 50.62° Asphalt 0 ft / 0 m 0 ft / 0 m
13 121 ft / 37 m 2,073 ft / 632 m 134.77° 131.49° Grass 0 ft / 0 m 0 ft / 0 m
17 75 ft / 23 m 4,213 ft / 1,284 m 181.49° 178.21° Asphalt 0 ft / 0 m 0 ft / 0 m
22 59 ft / 18 m 3,414 ft / 1,041 m 233.90° 230.62° Asphalt 0 ft / 0 m 0 ft / 0 m
31 121 ft / 37 m 2,073 ft / 632 m 314.77° 311.49° Grass 0 ft / 0 m 0 ft / 0 m
35 75 ft / 23 m 4,213 ft / 1,284 m 1.49° 358.21° Asphalt 0 ft / 0 m 0 ft / 0 m

Map

Weather


0- 5 10 15 20 25 30 35+ Temperature / ° C

Clouds and Precipitation
Forecast for 2017-12-12 12:00 UTC. Updated an hour ago

Ground ~20,000 ft ~40,000 ft Winds

METAR

KLCG 121035Z AUTO 00000KT 10SM CLR M09/M10 A3032 RMK AO2 T10861097

TAF

Not found

Frequencies

Recorded 120.12 MHz AWOS 3
Approach 124.60 MHz SIOUX CITY APP/DEP
Unicom 122.80 MHz CTAF/UNICOM
Warning: Do not use this data for real-world aviation or navigation. No guarantee of current accuracy is given.